Durango, CO

12:05 PM MDT on August 29, 2016 (GMT -0600)
Edgemont Highlands | | Change Station

Elev 7484 ft 37.31 °N, 107.79 °W | Updated 11 seconds ago

Scattered Clouds
Scattered Clouds
68.1 °F
Feels Like 68.1 °F
N
1.0
Wind Variable Wind from SE
Gusts 3.0 mph

Today
High -- | Low -- °F
--% Chance of Precip.
Yesterday
High -- | Low -- °F
Precip. -- in
Pressure 30.15 in
Visibility 10.0 miles
Clouds Scattered Clouds 11000 ft
Dew Point 41 °F
Humidity 37%
Rainfall Not available.
Snow Depth Not available.
6:39 AM 7:43 PM
Waning Crescent, 7% visible
METAR KDRO 291753Z AUTO VRB04KT 10SM SCT110 21/03 A3036 RMK AO2 LTG DSNT NW SLP210 T02110033 10222 20078 50000
Pressure 30.15 in
Visibility 10.0 miles
Clouds Scattered Clouds 11000 ft
Dew Point 41 °F
Humidity 37%
Rainfall Not available.
Snow Depth Not available.
6:39 AM 7:43 PM
Waning Crescent, 7% visible
METAR KDRO 291753Z AUTO VRB04KT 10SM SCT110 21/03 A3036 RMK AO2 LTG DSNT NW SLP210 T02110033 10222 20078 50000

10-Day Weather Forecast

Almanac

Astronomy

Aug. 29, 2016 Rise Set
Actual Time
Civil Twilight
Nautical Twilight
Astronomical Twilight
Moon
Length of Visible Light
Length of Day
Tomorrow will be .
, % of the Moon is Illuminated

Today's Extremes

State Highs State Lows

Community

WunderPhotos

Upload Photos

1,935,685 photos uploaded!

WunderBlog® & News

Nearby

Air Quality

  Air Quality AQ Index Pollutant
Not available.

Snow Depth

Station Depth Elevation

Earthquake Activity

City Distance Mag. Time & Date
Minimum magnitude displayed is 2.5.

Coastal Water Temperatures

Place Temperature

Stations

Nearby Weather Stations

Station Location Temp. Windchill Dew Point Humidity Wind Precip. Elev Updated Type
                   

Watches & Warnings

There are currently no watches in effect.